createdAt,value
2022-11-06T00:01:21.416Z,49.79
2022-11-06T00:04:24.250Z,49.80
2022-11-06T00:07:27.399Z,49.84
2022-11-06T00:10:31.443Z,49.79
2022-11-06T00:13:34.174Z,49.87
2022-11-06T00:16:37.964Z,50.01
2022-11-06T00:19:41.749Z,49.95
2022-11-06T00:22:45.969Z,49.93
2022-11-06T00:25:53.089Z,49.86
2022-11-06T00:28:55.882Z,50.11
2022-11-06T00:31:58.747Z,50.13
2022-11-06T00:35:01.544Z,50.20
2022-11-06T00:38:05.895Z,50.22
2022-11-06T00:41:09.339Z,50.41
2022-11-06T00:44:12.182Z,50.19
2022-11-06T00:47:15.067Z,50.38
2022-11-06T00:50:17.872Z,50.46
2022-11-06T00:53:21.998Z,50.47
2022-11-06T00:56:24.910Z,50.61
2022-11-06T00:59:27.692Z,50.54
2022-11-06T01:02:30.713Z,50.36
2022-11-06T01:05:33.856Z,50.38
2022-11-06T01:08:38.079Z,50.42
2022-11-06T01:12:11.183Z,50.33
2022-11-06T01:15:05.235Z,50.44
2022-11-06T01:18:09.016Z,50.48
2022-11-06T01:21:12.626Z,50.43
2022-11-06T01:24:17.842Z,50.36
2022-11-06T01:27:26.352Z,50.46
2022-11-06T01:30:29.860Z,50.47
2022-11-06T01:33:32.697Z,50.47
2022-11-06T01:36:35.691Z,50.46
2022-11-06T01:39:39.828Z,50.42
2022-11-06T01:42:42.554Z,50.34
2022-11-06T01:45:46.262Z,50.61
2022-11-06T01:48:51.257Z,50.53
2022-11-06T01:51:56.257Z,50.43
2022-11-06T01:55:04.391Z,50.59
2022-11-06T01:58:09.022Z,50.75
2022-11-06T02:01:11.948Z,50.78
2022-11-06T02:04:17.223Z,50.52
2022-11-06T02:07:20.995Z,50.39
2022-11-06T02:10:25.128Z,50.36
2022-11-06T02:13:38.741Z,50.04
2022-11-06T02:16:46.963Z,49.91
2022-11-06T02:20:04.356Z,49.61
2022-11-06T02:23:15.639Z,49.58
2022-11-06T02:26:30.749Z,49.58
2022-11-06T02:29:39.424Z,49.45
2022-11-06T02:32:45.044Z,49.51
2022-11-06T02:35:50.278Z,49.33
2022-11-06T02:38:57.237Z,49.37
2022-11-06T02:42:00.725Z,49.38
2022-11-06T02:45:06.543Z,49.14
2022-11-06T02:48:11.194Z,48.89
2022-11-06T02:51:17.073Z,49.07
2022-11-06T02:54:21.046Z,49.14
2022-11-06T02:57:26.850Z,48.81
2022-11-06T03:00:31.397Z,48.93
2022-11-06T03:03:36.892Z,48.83
2022-11-06T03:06:41.907Z,49.42
2022-11-06T03:09:45.345Z,50.04
2022-11-06T03:12:52.477Z,50.42
2022-11-06T03:16:05.332Z,50.44
2022-11-06T03:19:12.446Z,50.32
2022-11-06T03:22:17.449Z,50.84
2022-11-06T03:25:24.362Z,50.68
2022-11-06T03:28:31.244Z,42.27
2022-11-06T03:31:38.809Z,49.88
2022-11-06T03:34:43.985Z,49.60
2022-11-06T03:37:49.596Z,50.57
2022-11-06T03:40:53.751Z,50.70
2022-11-06T03:43:57.478Z,50.52
2022-11-06T03:47:03.121Z,50.31
2022-11-06T03:50:09.410Z,50.87
2022-11-06T03:53:15.112Z,50.76
2022-11-06T03:56:22.513Z,50.63
2022-11-06T03:59:29.253Z,51.15
2022-11-06T04:02:35.427Z,50.57
2022-11-06T04:05:41.731Z,50.54
2022-11-06T04:09:03.262Z,50.44
2022-11-06T04:12:25.252Z,50.39
2022-11-06T04:15:31.545Z,50.37
2022-11-06T04:18:35.803Z,50.26
2022-11-06T04:21:48.658Z,50.36
2022-11-06T04:25:15.729Z,50.45
2022-11-06T04:28:27.709Z,50.44
2022-11-06T04:31:34.950Z,50.45
2022-11-06T04:34:44.289Z,50.24
2022-11-06T04:37:52.250Z,50.29
2022-11-06T04:40:59.686Z,50.29
2022-11-06T04:44:05.338Z,50.38
2022-11-06T04:47:09.691Z,50.27
2022-11-06T04:50:15.486Z,50.37
2022-11-06T04:53:19.806Z,50.45
2022-11-06T04:56:25.689Z,50.51
2022-11-06T04:59:28.712Z,50.47
2022-11-06T05:02:31.466Z,50.52
2022-11-06T05:05:35.595Z,50.40
2022-11-06T05:08:38.378Z,50.54
2022-11-06T05:11:41.164Z,51.27
2022-11-06T05:14:43.950Z,51.10
2022-11-06T05:17:47.143Z,50.91
2022-11-06T05:21:11.295Z,50.87
2022-11-06T05:24:13.101Z,51.03
2022-11-06T05:27:15.899Z,51.05
2022-11-06T05:30:18.773Z,50.94
2022-11-06T05:33:21.569Z,50.87
2022-11-06T05:36:25.696Z,50.84
2022-11-06T05:39:28.451Z,50.92
2022-11-06T05:42:31.221Z,50.81
2022-11-06T05:45:34.041Z,50.83
2022-11-06T05:48:36.846Z,50.80
2022-11-06T05:51:40.989Z,50.56
2022-11-06T05:54:43.707Z,50.82
2022-11-06T05:57:46.511Z,50.68
2022-11-06T06:00:49.276Z,50.70
2022-11-06T06:03:52.096Z,50.59
2022-11-06T06:06:56.263Z,50.66
2022-11-06T06:09:59.096Z,50.68
2022-11-06T06:13:01.881Z,50.65
2022-11-06T06:16:04.919Z,50.59
2022-11-06T06:19:07.620Z,50.60
2022-11-06T06:22:12.060Z,50.72
2022-11-06T06:25:22.489Z,50.73
2022-11-06T06:28:26.824Z,50.67
2022-11-06T06:31:29.587Z,50.70
2022-11-06T06:34:32.477Z,50.74
2022-11-06T06:37:36.616Z,50.48
2022-11-06T06:40:39.340Z,50.65
2022-11-06T06:43:42.153Z,50.66
2022-11-06T06:46:44.907Z,50.74
2022-11-06T06:49:47.726Z,50.57
2022-11-06T06:52:56.065Z,50.55
2022-11-06T06:55:59.880Z,50.51
2022-11-06T06:59:02.606Z,50.74
2022-11-06T07:02:05.569Z,50.72
2022-11-06T07:05:08.722Z,50.63
2022-11-06T07:08:13.123Z,50.57
2022-11-06T07:11:17.124Z,50.56
2022-11-06T07:14:19.817Z,50.62
2022-11-06T07:17:22.660Z,50.70
2022-11-06T07:20:25.417Z,50.38
2022-11-06T07:23:29.536Z,50.37
2022-11-06T07:26:32.339Z,50.90
2022-11-06T07:29:35.390Z,50.97
2022-11-06T07:32:38.199Z,51.00
2022-11-06T07:35:41.007Z,50.81
2022-11-06T07:38:45.344Z,50.92
2022-11-06T07:41:48.104Z,50.74
2022-11-06T07:44:54.350Z,50.74
2022-11-06T07:47:59.239Z,50.74
2022-11-06T07:51:03.880Z,50.90
2022-11-06T07:54:07.981Z,50.79
2022-11-06T07:57:10.769Z,50.82
2022-11-06T08:00:14.060Z,50.66
2022-11-06T08:03:16.861Z,50.62
2022-11-06T08:06:19.597Z,50.79
2022-11-06T08:09:25.191Z,50.65
2022-11-06T08:12:27.924Z,50.75
2022-11-06T08:15:30.682Z,50.47
2022-11-06T08:18:33.758Z,50.86
2022-11-06T08:21:36.528Z,50.87
2022-11-06T08:24:40.672Z,50.93
2022-11-06T08:27:43.427Z,50.89
2022-11-06T08:30:46.210Z,50.84
2022-11-06T08:33:49.011Z,50.73
2022-11-06T08:36:52.419Z,50.77
2022-11-06T08:39:56.552Z,50.85
2022-11-06T08:43:02.474Z,50.73
2022-11-06T08:46:05.944Z,50.90
2022-11-06T08:49:08.647Z,50.53
2022-11-06T08:52:11.451Z,50.74
2022-11-06T08:55:15.678Z,50.60
2022-11-06T08:58:18.463Z,50.66
2022-11-06T09:01:24.044Z,50.41
2022-11-06T09:04:27.111Z,50.58
2022-11-06T09:07:29.895Z,50.54
2022-11-06T09:10:34.148Z,50.49
2022-11-06T09:13:36.883Z,49.87
2022-11-06T09:16:39.714Z,50.66
2022-11-06T09:19:42.398Z,50.73
2022-11-06T09:22:45.166Z,50.68
2022-11-06T09:25:49.295Z,50.15
2022-11-06T09:28:52.053Z,50.84
2022-11-06T09:31:55.113Z,50.92
2022-11-06T09:35:01.741Z,50.92
2022-11-06T09:38:04.582Z,50.73
2022-11-06T09:41:15.623Z,50.67
2022-11-06T09:44:25.637Z,50.73
2022-11-06T09:47:31.127Z,50.72
2022-11-06T09:50:37.049Z,50.77
2022-11-06T09:53:41.628Z,50.42
2022-11-06T09:56:47.351Z,50.59
2022-11-06T09:59:51.346Z,50.00
2022-11-06T10:02:56.471Z,50.34
2022-11-06T10:05:59.323Z,50.00
2022-11-06T10:09:03.680Z,49.93
2022-11-06T10:12:14.727Z,49.57
2022-11-06T10:18:55.103Z,49.19
2022-11-06T10:22:04.507Z,49.16
2022-11-06T10:25:19.548Z,49.32
2022-11-06T10:28:35.489Z,49.28
2022-11-06T10:31:40.465Z,49.27
2022-11-06T10:34:44.939Z,49.02
2022-11-06T10:37:49.772Z,48.96
2022-11-06T10:40:54.099Z,48.69
2022-11-06T10:44:00.674Z,48.80
2022-11-06T10:47:06.015Z,49.08
2022-11-06T10:50:12.822Z,48.94
2022-11-06T10:53:23.360Z,48.71
2022-11-06T10:56:37.506Z,48.67
2022-11-06T10:59:41.750Z,48.73
2022-11-06T11:02:47.544Z,48.76
2022-11-06T11:05:50.321Z,48.71
2022-11-06T11:08:53.674Z,48.78
2022-11-06T11:11:56.612Z,48.41
2022-11-06T11:15:11.868Z,48.56
2022-11-06T11:18:19.613Z,48.47
2022-11-06T11:21:25.182Z,48.27
2022-11-06T11:24:28.388Z,48.06
2022-11-06T11:27:31.826Z,47.89
2022-11-06T11:30:37.404Z,48.41
2022-11-06T11:33:41.122Z,48.27
2022-11-06T11:36:54.379Z,48.50
2022-11-06T11:39:57.298Z,48.12
2022-11-06T11:43:16.542Z,48.19
2022-11-06T11:46:22.215Z,48.16
2022-11-06T11:49:29.171Z,48.29
2022-11-06T11:52:32.970Z,48.28
2022-11-06T11:55:38.874Z,48.33
2022-11-06T11:58:41.592Z,48.08
2022-11-06T12:01:46.032Z,48.28
2022-11-06T12:04:51.597Z,48.30
2022-11-06T12:07:55.405Z,48.15
2022-11-06T12:11:03.841Z,48.16
2022-11-06T12:14:19.931Z,48.21
2022-11-06T12:17:25.065Z,48.06
2022-11-06T12:20:31.987Z,48.16
2022-11-06T12:23:37.462Z,48.09
2022-11-06T12:26:45.662Z,48.15
2022-11-06T12:29:52.641Z,48.00
2022-11-06T12:33:01.910Z,48.13
2022-11-06T12:36:08.158Z,47.89
2022-11-06T12:39:13.618Z,47.95
2022-11-06T12:42:18.749Z,48.07
2022-11-06T12:45:21.929Z,47.98
2022-11-06T12:48:32.529Z,48.03
2022-11-06T12:51:43.273Z,47.87
2022-11-06T12:55:00.310Z,47.95
2022-11-06T12:58:10.684Z,47.96
2022-11-06T13:01:17.610Z,47.71
2022-11-06T13:04:33.798Z,47.84
2022-11-06T13:07:43.124Z,47.96
2022-11-06T13:10:52.645Z,47.85
2022-11-06T13:14:02.597Z,47.73
2022-11-06T13:17:08.527Z,47.92
2022-11-06T13:20:20.113Z,47.82
2022-11-06T13:23:26.486Z,47.68
2022-11-06T13:26:33.698Z,47.73
2022-11-06T13:29:37.432Z,47.84
2022-11-06T13:32:41.328Z,47.78
2022-11-06T13:35:46.408Z,47.59
2022-11-06T13:38:52.644Z,47.58
2022-11-06T13:41:56.942Z,47.55
2022-11-06T13:45:00.101Z,47.71
2022-11-06T13:48:07.856Z,47.79
2022-11-06T13:51:15.280Z,47.56
2022-11-06T13:54:22.960Z,47.71
2022-11-06T13:57:43.031Z,47.68
2022-11-06T14:00:57.731Z,47.67
2022-11-06T14:04:10.995Z,47.58
2022-11-06T14:07:16.891Z,47.70
2022-11-06T14:10:21.501Z,47.55
2022-11-06T14:13:26.389Z,47.42
2022-11-06T14:16:30.546Z,47.72
2022-11-06T14:19:33.387Z,47.50
2022-11-06T14:22:38.390Z,47.66
2022-11-06T14:25:58.920Z,47.58
2022-11-06T14:29:21.664Z,47.35
2022-11-06T14:32:34.576Z,47.71
2022-11-06T14:35:52.183Z,47.38
2022-11-06T14:38:56.354Z,47.46
2022-11-06T14:42:00.493Z,47.70
2022-11-06T14:45:09.912Z,47.44
2022-11-06T14:48:18.286Z,47.70
2022-11-06T14:51:26.748Z,47.58
2022-11-06T14:54:31.669Z,47.42
2022-11-06T14:57:41.264Z,47.54
2022-11-06T15:00:51.574Z,47.60
2022-11-06T15:03:56.190Z,47.29
2022-11-06T15:07:08.213Z,47.67
2022-11-06T15:10:33.365Z,47.36
2022-11-06T15:13:36.210Z,47.30
2022-11-06T15:16:40.776Z,46.52
2022-11-06T15:19:45.018Z,45.15
2022-11-06T15:22:51.083Z,44.68
2022-11-06T15:26:02.127Z,45.33
2022-11-06T15:29:13.066Z,44.92
2022-11-06T15:32:18.136Z,44.54
2022-11-06T15:35:23.151Z,44.56
2022-11-06T15:38:37.642Z,44.29
2022-11-06T15:41:42.487Z,44.20
2022-11-06T15:44:45.875Z,44.49
2022-11-06T15:47:53.741Z,44.60
2022-11-06T15:50:56.535Z,45.50
2022-11-06T15:53:59.513Z,44.73
2022-11-06T15:57:05.161Z,44.46
2022-11-06T16:00:09.341Z,44.91
2022-11-06T16:03:14.247Z,45.44
2022-11-06T16:06:17.940Z,45.87
2022-11-06T16:09:22.893Z,46.94
2022-11-06T16:12:27.558Z,46.79
2022-11-06T16:15:48.808Z,47.37
2022-11-06T16:18:51.583Z,47.47
2022-11-06T16:21:57.637Z,47.56
2022-11-06T16:25:01.611Z,47.74
2022-11-06T16:28:05.938Z,47.70
2022-11-06T16:31:11.419Z,47.65
2022-11-06T16:34:21.825Z,48.00
2022-11-06T16:37:45.574Z,48.13
2022-11-06T16:40:50.355Z,47.89
2022-11-06T16:44:18.640Z,48.17
2022-11-06T16:47:22.844Z,48.07
2022-11-06T16:50:45.515Z,48.03
2022-11-06T16:53:58.356Z,48.38
2022-11-06T16:57:09.378Z,48.55
2022-11-06T17:00:26.101Z,48.43
2022-11-06T17:03:30.628Z,48.51
2022-11-06T17:06:34.529Z,48.52
2022-11-06T17:09:37.256Z,48.74
2022-11-06T17:12:40.054Z,48.61
2022-11-06T17:15:44.986Z,48.74
2022-11-06T17:18:48.109Z,48.63
2022-11-06T17:21:51.277Z,48.62
2022-11-06T17:24:54.049Z,48.68
2022-11-06T17:27:56.834Z,48.59
2022-11-06T17:31:00.993Z,48.64
2022-11-06T17:34:03.751Z,47.87
2022-11-06T17:37:06.952Z,48.48
2022-11-06T17:40:10.459Z,48.55
2022-11-06T17:43:13.635Z,48.87
2022-11-06T17:46:18.033Z,48.92
2022-11-06T17:49:20.885Z,48.75
2022-11-06T17:52:23.753Z,48.68
2022-11-06T17:55:26.518Z,49.15
2022-11-06T17:58:29.359Z,49.08
2022-11-06T18:01:33.772Z,48.91
2022-11-06T18:04:38.974Z,48.96
2022-11-06T18:07:41.778Z,48.85
2022-11-06T18:10:44.565Z,49.14
2022-11-06T18:13:47.330Z,48.91
2022-11-06T18:16:51.539Z,49.09
2022-11-06T18:19:54.523Z,48.86
2022-11-06T18:22:57.785Z,49.28
2022-11-06T18:26:01.849Z,49.03
2022-11-06T18:29:04.776Z,49.00
2022-11-06T18:32:09.060Z,49.19
2022-11-06T18:35:12.688Z,48.98
2022-11-06T18:38:16.131Z,49.15
2022-11-06T18:41:19.803Z,48.96
2022-11-06T18:44:22.653Z,49.14
2022-11-06T18:47:26.721Z,48.98
2022-11-06T18:50:29.511Z,48.83
2022-11-06T18:53:32.898Z,49.11
2022-11-06T18:56:37.416Z,48.94
2022-11-06T18:59:40.218Z,48.97
2022-11-06T19:02:44.985Z,48.97
2022-11-06T19:05:48.299Z,48.99
2022-11-06T19:08:51.051Z,49.00
2022-11-06T19:11:53.823Z,49.18
2022-11-06T19:14:56.866Z,49.04
2022-11-06T19:18:01.179Z,49.27
2022-11-06T19:21:05.250Z,49.02
2022-11-06T19:24:08.224Z,49.16
2022-11-06T19:27:11.046Z,49.13
2022-11-06T19:30:14.361Z,48.77
2022-11-06T19:33:18.488Z,48.70
2022-11-06T19:36:21.237Z,48.50
2022-11-06T19:39:24.458Z,48.14
2022-11-06T19:42:27.222Z,47.85
2022-11-06T19:45:29.970Z,47.96
2022-11-06T19:48:34.669Z,48.07
2022-11-06T19:51:38.840Z,48.13
2022-11-06T19:54:41.631Z,48.05
2022-11-06T19:57:44.438Z,48.31
2022-11-06T20:00:48.557Z,48.27
2022-11-06T20:03:52.716Z,48.22
2022-11-06T20:06:55.456Z,48.21
2022-11-06T20:10:02.152Z,48.31
2022-11-06T20:13:06.171Z,48.46
2022-11-06T20:16:09.889Z,48.57
2022-11-06T20:19:14.049Z,48.54
2022-11-06T20:22:16.871Z,48.52
2022-11-06T20:25:19.813Z,48.45
2022-11-06T20:28:23.775Z,48.60
2022-11-06T20:31:26.683Z,48.49
2022-11-06T20:34:30.916Z,48.62
2022-11-06T20:37:33.683Z,48.78
2022-11-06T20:40:36.481Z,48.59
2022-11-06T20:43:39.238Z,48.38
2022-11-06T20:46:41.989Z,48.94
2022-11-06T20:49:46.106Z,48.94
2022-11-06T20:52:48.797Z,48.86
2022-11-06T20:55:51.630Z,50.25
2022-11-06T20:58:56.137Z,49.65
2022-11-06T21:01:59.105Z,50.26
2022-11-06T21:05:03.416Z,50.46
2022-11-06T21:08:06.161Z,50.14
2022-11-06T21:11:11.546Z,50.17
2022-11-06T21:14:14.342Z,49.54
2022-11-06T21:17:17.054Z,49.86
2022-11-06T21:20:22.968Z,49.95
2022-11-06T21:23:25.783Z,49.43
2022-11-06T21:26:30.057Z,49.57
2022-11-06T21:29:32.793Z,50.50
2022-11-06T21:32:35.625Z,50.78
2022-11-06T21:35:39.877Z,50.44
2022-11-06T21:38:43.074Z,50.25
2022-11-06T21:41:46.152Z,50.46
2022-11-06T21:44:48.890Z,49.89
2022-11-06T21:47:51.708Z,49.27
2022-11-06T21:50:58.918Z,49.33
2022-11-06T21:54:19.433Z,48.79
2022-11-06T21:57:23.221Z,48.88
2022-11-06T22:00:25.989Z,48.63
2022-11-06T22:03:28.754Z,48.28
2022-11-06T22:06:32.934Z,48.24
2022-11-06T22:09:35.686Z,48.19
2022-11-06T22:12:38.446Z,47.78
2022-11-06T22:15:41.265Z,48.01
2022-11-06T22:18:44.087Z,47.93
2022-11-06T22:21:48.210Z,47.90
2022-11-06T22:24:50.944Z,47.95
2022-11-06T22:27:53.745Z,47.87
2022-11-06T22:30:56.522Z,47.87
2022-11-06T22:33:59.460Z,47.85
2022-11-06T22:37:03.586Z,47.66
2022-11-06T22:40:07.032Z,47.59
2022-11-06T22:43:10.027Z,47.50
2022-11-06T22:46:13.677Z,47.62
2022-11-06T22:49:16.420Z,47.93
2022-11-06T22:52:20.578Z,47.88
2022-11-06T22:55:23.306Z,47.82
2022-11-06T22:58:26.692Z,47.93
2022-11-06T23:01:30.637Z,47.97
2022-11-06T23:04:33.412Z,47.99
2022-11-06T23:07:37.599Z,47.71
2022-11-06T23:10:40.373Z,48.16
2022-11-06T23:13:43.991Z,48.21
2022-11-06T23:17:00.912Z,48.39
2022-11-06T23:20:04.001Z,48.50
2022-11-06T23:23:08.108Z,48.04
2022-11-06T23:26:11.774Z,48.16
2022-11-06T23:29:14.569Z,48.53
2022-11-06T23:32:17.356Z,48.52
2022-11-06T23:35:22.681Z,48.53
2022-11-06T23:38:27.061Z,48.80
2022-11-06T23:41:43.706Z,48.60
2022-11-06T23:45:04.460Z,48.86
2022-11-06T23:48:12.286Z,48.85
2022-11-06T23:51:15.066Z,48.98
2022-11-06T23:54:19.188Z,49.12
2022-11-06T23:57:22.489Z,48.93
